sensor_id;sensor_type;location;lat;lon;timestamp;temperature;humidity
12893;DHT22;6514;48.606;9.222;2022-07-23T00:01:37;20.90;99.90
12893;DHT22;6514;48.606;9.222;2022-07-23T00:04:04;20.80;99.90
12893;DHT22;6514;48.606;9.222;2022-07-23T00:06:32;20.80;99.90
12893;DHT22;6514;48.606;9.222;2022-07-23T00:08:59;20.70;99.90
12893;DHT22;6514;48.606;9.222;2022-07-23T00:11:26;20.80;99.90
12893;DHT22;6514;48.606;9.222;2022-07-23T00:13:53;20.80;99.90
12893;DHT22;6514;48.606;9.222;2022-07-23T00:16:21;20.80;99.90
12893;DHT22;6514;48.606;9.222;2022-07-23T00:18:48;20.80;99.90
12893;DHT22;6514;48.606;9.222;2022-07-23T00:21:15;20.80;99.90
12893;DHT22;6514;48.606;9.222;2022-07-23T00:23:43;20.80;99.90
12893;DHT22;6514;48.606;9.222;2022-07-23T00:26:10;20.80;99.90
12893;DHT22;6514;48.606;9.222;2022-07-23T00:28:37;20.80;99.90
12893;DHT22;6514;48.606;9.222;2022-07-23T00:31:04;20.80;99.90
12893;DHT22;6514;48.606;9.222;2022-07-23T00:33:31;20.80;99.90
12893;DHT22;6514;48.606;9.222;2022-07-23T00:35:58;20.80;99.90
12893;DHT22;6514;48.606;9.222;2022-07-23T00:38:25;20.80;99.90
12893;DHT22;6514;48.606;9.222;2022-07-23T00:40:53;20.70;99.90
12893;DHT22;6514;48.606;9.222;2022-07-23T00:43:20;20.70;99.90
12893;DHT22;6514;48.606;9.222;2022-07-23T00:45:47;20.70;99.90
12893;DHT22;6514;48.606;9.222;2022-07-23T00:48:14;20.70;99.90
12893;DHT22;6514;48.606;9.222;2022-07-23T00:50:42;20.70;99.90
12893;DHT22;6514;48.606;9.222;2022-07-23T00:53:10;20.70;99.90
12893;DHT22;6514;48.606;9.222;2022-07-23T00:55:38;20.70;99.90
12893;DHT22;6514;48.606;9.222;2022-07-23T00:58:08;20.70;99.90
12893;DHT22;6514;48.606;9.222;2022-07-23T01:00:35;20.70;99.90
12893;DHT22;6514;48.606;9.222;2022-07-23T01:03:02;20.60;99.90
12893;DHT22;6514;48.606;9.222;2022-07-23T01:05:29;20.60;99.90
12893;DHT22;6514;48.606;9.222;2022-07-23T01:10:35;20.50;99.90
12893;DHT22;6514;48.606;9.222;2022-07-23T01:13:03;20.50;99.90
12893;DHT22;6514;48.606;9.222;2022-07-23T01:15:33;20.40;99.90
12893;DHT22;6514;48.606;9.222;2022-07-23T01:18:00;20.40;99.90
12893;DHT22;6514;48.606;9.222;2022-07-23T01:20:28;20.40;99.90
12893;DHT22;6514;48.606;9.222;2022-07-23T01:22:57;20.40;99.90
12893;DHT22;6514;48.606;9.222;2022-07-23T01:25:24;20.40;99.90
12893;DHT22;6514;48.606;9.222;2022-07-23T01:27:52;20.50;99.90
12893;DHT22;6514;48.606;9.222;2022-07-23T01:30:21;20.40;99.90
12893;DHT22;6514;48.606;9.222;2022-07-23T01:32:50;20.40;99.90
12893;DHT22;6514;48.606;9.222;2022-07-23T01:35:17;20.50;99.90
12893;DHT22;6514;48.606;9.222;2022-07-23T01:37:44;20.50;99.90
12893;DHT22;6514;48.606;9.222;2022-07-23T01:40:13;20.40;99.90
12893;DHT22;6514;48.606;9.222;2022-07-23T01:42:40;20.40;99.90
12893;DHT22;6514;48.606;9.222;2022-07-23T01:45:07;20.40;99.90
12893;DHT22;6514;48.606;9.222;2022-07-23T01:47:34;20.30;99.90
12893;DHT22;6514;48.606;9.222;2022-07-23T01:50:01;20.30;99.90
12893;DHT22;6514;48.606;9.222;2022-07-23T01:52:28;20.30;99.90
12893;DHT22;6514;48.606;9.222;2022-07-23T01:54:55;20.20;99.90
12893;DHT22;6514;48.606;9.222;2022-07-23T01:57:23;20.20;99.90
12893;DHT22;6514;48.606;9.222;2022-07-23T01:59:50;20.10;99.90
12893;DHT22;6514;48.606;9.222;2022-07-23T02:02:17;20.00;99.90
12893;DHT22;6514;48.606;9.222;2022-07-23T02:04:44;19.90;99.90
12893;DHT22;6514;48.606;9.222;2022-07-23T02:07:11;19.90;99.90
12893;DHT22;6514;48.606;9.222;2022-07-23T02:09:38;19.80;99.90
12893;DHT22;6514;48.606;9.222;2022-07-23T02:12:05;19.80;99.90
12893;DHT22;6514;48.606;9.222;2022-07-23T02:14:33;19.80;99.90
12893;DHT22;6514;48.606;9.222;2022-07-23T02:17:00;19.70;99.90
12893;DHT22;6514;48.606;9.222;2022-07-23T02:19:27;19.70;99.90
12893;DHT22;6514;48.606;9.222;2022-07-23T02:21:54;19.70;99.90
12893;DHT22;6514;48.606;9.222;2022-07-23T02:24:22;19.70;99.90
12893;DHT22;6514;48.606;9.222;2022-07-23T02:26:49;19.70;99.90
12893;DHT22;6514;48.606;9.222;2022-07-23T02:29:16;19.70;99.90
12893;DHT22;6514;48.606;9.222;2022-07-23T02:31:44;19.60;99.90
12893;DHT22;6514;48.606;9.222;2022-07-23T02:34:12;19.70;99.90
12893;DHT22;6514;48.606;9.222;2022-07-23T02:36:39;19.70;99.90
12893;DHT22;6514;48.606;9.222;2022-07-23T02:39:06;19.70;99.90
12893;DHT22;6514;48.606;9.222;2022-07-23T02:41:33;19.80;99.90
12893;DHT22;6514;48.606;9.222;2022-07-23T02:44:00;19.70;99.90
12893;DHT22;6514;48.606;9.222;2022-07-23T02:46:27;19.80;99.90
12893;DHT22;6514;48.606;9.222;2022-07-23T02:48:55;19.80;99.90
12893;DHT22;6514;48.606;9.222;2022-07-23T02:51:22;19.80;99.90
12893;DHT22;6514;48.606;9.222;2022-07-23T02:53:49;19.80;99.90
12893;DHT22;6514;48.606;9.222;2022-07-23T02:56:16;19.80;99.90
12893;DHT22;6514;48.606;9.222;2022-07-23T02:58:43;19.80;99.90
12893;DHT22;6514;48.606;9.222;2022-07-23T03:01:10;19.80;99.90
12893;DHT22;6514;48.606;9.222;2022-07-23T03:03:37;19.80;99.90
12893;DHT22;6514;48.606;9.222;2022-07-23T03:06:05;19.80;99.90
12893;DHT22;6514;48.606;9.222;2022-07-23T03:08:33;19.70;99.90
12893;DHT22;6514;48.606;9.222;2022-07-23T03:10:59;19.70;99.90
12893;DHT22;6514;48.606;9.222;2022-07-23T03:13:26;19.80;99.90
12893;DHT22;6514;48.606;9.222;2022-07-23T03:15:55;19.70;99.90
12893;DHT22;6514;48.606;9.222;2022-07-23T03:18:21;19.70;99.90
12893;DHT22;6514;48.606;9.222;2022-07-23T03:20:48;19.70;99.90
12893;DHT22;6514;48.606;9.222;2022-07-23T03:23:17;19.70;99.90
12893;DHT22;6514;48.606;9.222;2022-07-23T03:25:44;19.60;99.90
12893;DHT22;6514;48.606;9.222;2022-07-23T03:28:12;19.60;99.90
12893;DHT22;6514;48.606;9.222;2022-07-23T03:30:39;19.60;99.90
12893;DHT22;6514;48.606;9.222;2022-07-23T03:33:06;19.60;99.90
12893;DHT22;6514;48.606;9.222;2022-07-23T03:35:33;19.60;99.90
12893;DHT22;6514;48.606;9.222;2022-07-23T03:38:00;19.50;99.90
12893;DHT22;6514;48.606;9.222;2022-07-23T03:40:28;19.50;99.90
12893;DHT22;6514;48.606;9.222;2022-07-23T03:42:55;19.50;99.90
12893;DHT22;6514;48.606;9.222;2022-07-23T03:45:22;19.50;99.90
12893;DHT22;6514;48.606;9.222;2022-07-23T03:47:49;19.40;99.90
12893;DHT22;6514;48.606;9.222;2022-07-23T03:50:16;19.40;99.90
12893;DHT22;6514;48.606;9.222;2022-07-23T03:52:43;19.30;99.90
12893;DHT22;6514;48.606;9.222;2022-07-23T03:55:10;19.20;99.90
12893;DHT22;6514;48.606;9.222;2022-07-23T03:57:38;19.10;99.90
12893;DHT22;6514;48.606;9.222;2022-07-23T04:00:07;19.10;99.90
12893;DHT22;6514;48.606;9.222;2022-07-23T04:02:35;19.00;99.90
12893;DHT22;6514;48.606;9.222;2022-07-23T04:05:02;18.90;99.90
12893;DHT22;6514;48.606;9.222;2022-07-23T04:07:29;18.80;99.90
12893;DHT22;6514;48.606;9.222;2022-07-23T04:09:56;18.80;99.90
12893;DHT22;6514;48.606;9.222;2022-07-23T04:12:23;18.80;99.90
12893;DHT22;6514;48.606;9.222;2022-07-23T04:14:51;18.90;99.90
12893;DHT22;6514;48.606;9.222;2022-07-23T04:17:18;18.90;99.90
12893;DHT22;6514;48.606;9.222;2022-07-23T04:19:45;18.90;99.90
12893;DHT22;6514;48.606;9.222;2022-07-23T04:22:12;19.00;99.90
12893;DHT22;6514;48.606;9.222;2022-07-23T04:24:39;19.00;99.90
12893;DHT22;6514;48.606;9.222;2022-07-23T04:27:06;19.00;99.90
12893;DHT22;6514;48.606;9.222;2022-07-23T04:29:33;19.10;99.90
12893;DHT22;6514;48.606;9.222;2022-07-23T04:32:01;19.10;99.90
12893;DHT22;6514;48.606;9.222;2022-07-23T04:34:28;19.10;99.90
12893;DHT22;6514;48.606;9.222;2022-07-23T04:36:55;19.10;99.90
12893;DHT22;6514;48.606;9.222;2022-07-23T04:39:22;19.20;99.90
12893;DHT22;6514;48.606;9.222;2022-07-23T04:41:49;19.20;99.90
12893;DHT22;6514;48.606;9.222;2022-07-23T04:44:16;19.20;99.90
12893;DHT22;6514;48.606;9.222;2022-07-23T04:46:43;19.30;99.90
12893;DHT22;6514;48.606;9.222;2022-07-23T04:49:11;19.30;99.90
12893;DHT22;6514;48.606;9.222;2022-07-23T04:51:38;19.40;99.90
12893;DHT22;6514;48.606;9.222;2022-07-23T04:54:05;19.40;99.90
12893;DHT22;6514;48.606;9.222;2022-07-23T04:56:32;19.50;99.90
12893;DHT22;6514;48.606;9.222;2022-07-23T04:58:59;19.60;99.90
12893;DHT22;6514;48.606;9.222;2022-07-23T05:01:26;19.70;99.90
12893;DHT22;6514;48.606;9.222;2022-07-23T05:03:53;19.70;99.90
12893;DHT22;6514;48.606;9.222;2022-07-23T05:06:21;19.90;99.90
12893;DHT22;6514;48.606;9.222;2022-07-23T05:08:48;20.00;99.90
12893;DHT22;6514;48.606;9.222;2022-07-23T05:11:15;20.10;99.90
12893;DHT22;6514;48.606;9.222;2022-07-23T05:13:42;20.20;99.90
12893;DHT22;6514;48.606;9.222;2022-07-23T05:16:09;20.30;99.90
12893;DHT22;6514;48.606;9.222;2022-07-23T05:18:36;20.30;99.90
12893;DHT22;6514;48.606;9.222;2022-07-23T05:21:03;20.40;99.90
12893;DHT22;6514;48.606;9.222;2022-07-23T05:23:31;20.40;99.90
12893;DHT22;6514;48.606;9.222;2022-07-23T05:25:58;20.50;99.90
12893;DHT22;6514;48.606;9.222;2022-07-23T05:28:25;20.50;99.90
12893;DHT22;6514;48.606;9.222;2022-07-23T05:30:52;20.60;99.90
12893;DHT22;6514;48.606;9.222;2022-07-23T05:33:19;20.70;99.90
12893;DHT22;6514;48.606;9.222;2022-07-23T05:35:46;20.80;99.90
12893;DHT22;6514;48.606;9.222;2022-07-23T05:38:13;21.00;99.90
12893;DHT22;6514;48.606;9.222;2022-07-23T05:40:42;21.10;99.90
12893;DHT22;6514;48.606;9.222;2022-07-23T05:43:09;21.20;99.90
12893;DHT22;6514;48.606;9.222;2022-07-23T05:45:36;21.20;99.90
12893;DHT22;6514;48.606;9.222;2022-07-23T05:48:03;21.20;99.90
12893;DHT22;6514;48.606;9.222;2022-07-23T05:50:31;21.20;99.90
12893;DHT22;6514;48.606;9.222;2022-07-23T05:52:58;21.20;99.90
12893;DHT22;6514;48.606;9.222;2022-07-23T05:55:25;21.30;99.90
12893;DHT22;6514;48.606;9.222;2022-07-23T05:57:56;21.30;99.90
12893;DHT22;6514;48.606;9.222;2022-07-23T06:00:23;21.40;99.90
12893;DHT22;6514;48.606;9.222;2022-07-23T06:02:50;21.40;99.90
12893;DHT22;6514;48.606;9.222;2022-07-23T06:05:17;21.50;99.90
12893;DHT22;6514;48.606;9.222;2022-07-23T06:07:44;21.60;99.90
12893;DHT22;6514;48.606;9.222;2022-07-23T06:10:12;21.80;99.90
12893;DHT22;6514;48.606;9.222;2022-07-23T06:12:39;21.90;99.90
12893;DHT22;6514;48.606;9.222;2022-07-23T06:15:09;22.00;99.90
12893;DHT22;6514;48.606;9.222;2022-07-23T06:17:36;22.10;99.90
12893;DHT22;6514;48.606;9.222;2022-07-23T06:20:05;22.50;99.90
12893;DHT22;6514;48.606;9.222;2022-07-23T06:22:32;22.90;99.90
12893;DHT22;6514;48.606;9.222;2022-07-23T06:24:59;23.30;99.90
12893;DHT22;6514;48.606;9.222;2022-07-23T06:27:26;23.70;99.90
12893;DHT22;6514;48.606;9.222;2022-07-23T06:29:53;24.00;99.90
12893;DHT22;6514;48.606;9.222;2022-07-23T06:32:22;24.30;99.90
12893;DHT22;6514;48.606;9.222;2022-07-23T06:34:49;24.60;99.90
12893;DHT22;6514;48.606;9.222;2022-07-23T06:37:16;24.80;99.90
12893;DHT22;6514;48.606;9.222;2022-07-23T06:39:43;25.00;99.90
12893;DHT22;6514;48.606;9.222;2022-07-23T06:42:10;25.20;99.90
12893;DHT22;6514;48.606;9.222;2022-07-23T06:44:37;25.40;99.90
12893;DHT22;6514;48.606;9.222;2022-07-23T06:47:05;25.70;99.90
12893;DHT22;6514;48.606;9.222;2022-07-23T06:49:33;26.00;99.90
12893;DHT22;6514;48.606;9.222;2022-07-23T06:52:00;26.20;99.90
12893;DHT22;6514;48.606;9.222;2022-07-23T06:54:27;26.50;99.90
12893;DHT22;6514;48.606;9.222;2022-07-23T06:56:54;26.80;99.90
12893;DHT22;6514;48.606;9.222;2022-07-23T06:59:21;26.80;99.90
12893;DHT22;6514;48.606;9.222;2022-07-23T07:01:48;26.50;99.90
12893;DHT22;6514;48.606;9.222;2022-07-23T07:04:15;26.40;99.90
12893;DHT22;6514;48.606;9.222;2022-07-23T07:06:43;26.50;99.90
12893;DHT22;6514;48.606;9.222;2022-07-23T07:11:40;26.90;99.90
12893;DHT22;6514;48.606;9.222;2022-07-23T07:14:07;26.80;99.90
12893;DHT22;6514;48.606;9.222;2022-07-23T07:16:34;26.40;99.90
12893;DHT22;6514;48.606;9.222;2022-07-23T07:19:01;26.00;99.90
12893;DHT22;6514;48.606;9.222;2022-07-23T07:21:28;25.70;99.90
12893;DHT22;6514;48.606;9.222;2022-07-23T07:23:56;25.60;99.90
12893;DHT22;6514;48.606;9.222;2022-07-23T07:26:24;25.60;99.90
12893;DHT22;6514;48.606;9.222;2022-07-23T07:28:51;25.70;99.90
12893;DHT22;6514;48.606;9.222;2022-07-23T07:31:18;25.90;99.90
12893;DHT22;6514;48.606;9.222;2022-07-23T07:33:45;26.10;99.90
12893;DHT22;6514;48.606;9.222;2022-07-23T07:36:12;26.30;99.90
12893;DHT22;6514;48.606;9.222;2022-07-23T07:38:39;26.50;99.90
12893;DHT22;6514;48.606;9.222;2022-07-23T07:41:07;26.60;99.90
12893;DHT22;6514;48.606;9.222;2022-07-23T07:43:35;26.60;99.90
12893;DHT22;6514;48.606;9.222;2022-07-23T07:46:03;26.80;99.90
12893;DHT22;6514;48.606;9.222;2022-07-23T07:48:29;26.90;99.90
12893;DHT22;6514;48.606;9.222;2022-07-23T07:50:56;26.80;99.90
12893;DHT22;6514;48.606;9.222;2022-07-23T07:53:23;26.80;99.90
12893;DHT22;6514;48.606;9.222;2022-07-23T07:55:50;26.70;99.90
12893;DHT22;6514;48.606;9.222;2022-07-23T07:58:19;26.60;99.90
12893;DHT22;6514;48.606;9.222;2022-07-23T08:00:45;26.50;99.90
12893;DHT22;6514;48.606;9.222;2022-07-23T08:03:12;26.50;99.90
12893;DHT22;6514;48.606;9.222;2022-07-23T08:05:39;26.70;99.90
12893;DHT22;6514;48.606;9.222;2022-07-23T08:08:06;27.00;99.90
12893;DHT22;6514;48.606;9.222;2022-07-23T08:10:35;27.30;99.90
12893;DHT22;6514;48.606;9.222;2022-07-23T08:13:02;27.60;99.90
12893;DHT22;6514;48.606;9.222;2022-07-23T08:15:30;27.70;99.90
12893;DHT22;6514;48.606;9.222;2022-07-23T08:17:58;28.10;99.90
12893;DHT22;6514;48.606;9.222;2022-07-23T08:20:25;28.60;99.90
12893;DHT22;6514;48.606;9.222;2022-07-23T08:22:55;29.10;99.90
12893;DHT22;6514;48.606;9.222;2022-07-23T08:25:24;29.60;99.90
12893;DHT22;6514;48.606;9.222;2022-07-23T08:27:52;30.10;99.90
12893;DHT22;6514;48.606;9.222;2022-07-23T08:30:20;30.40;99.90
12893;DHT22;6514;48.606;9.222;2022-07-23T08:32:54;30.60;99.90
12893;DHT22;6514;48.606;9.222;2022-07-23T08:35:26;30.90;99.90
12893;DHT22;6514;48.606;9.222;2022-07-23T08:37:54;31.10;99.90
12893;DHT22;6514;48.606;9.222;2022-07-23T08:40:22;31.30;99.90
12893;DHT22;6514;48.606;9.222;2022-07-23T08:42:50;31.40;99.90
12893;DHT22;6514;48.606;9.222;2022-07-23T08:45:18;31.50;99.90
12893;DHT22;6514;48.606;9.222;2022-07-23T08:47:49;31.10;99.90
12893;DHT22;6514;48.606;9.222;2022-07-23T08:50:17;31.00;99.90
12893;DHT22;6514;48.606;9.222;2022-07-23T08:52:44;30.60;99.90
12893;DHT22;6514;48.606;9.222;2022-07-23T08:55:12;30.10;99.90
12893;DHT22;6514;48.606;9.222;2022-07-23T08:57:39;29.70;99.90
12893;DHT22;6514;48.606;9.222;2022-07-23T09:00:07;29.40;99.90
12893;DHT22;6514;48.606;9.222;2022-07-23T09:02:39;29.40;99.90
12893;DHT22;6514;48.606;9.222;2022-07-23T09:05:07;29.60;99.90
12893;DHT22;6514;48.606;9.222;2022-07-23T09:07:36;29.80;99.90
12893;DHT22;6514;48.606;9.222;2022-07-23T09:10:08;29.80;99.90
12893;DHT22;6514;48.606;9.222;2022-07-23T09:12:36;29.50;99.90
12893;DHT22;6514;48.606;9.222;2022-07-23T09:15:08;29.10;99.90
12893;DHT22;6514;48.606;9.222;2022-07-23T09:17:38;28.80;99.90
12893;DHT22;6514;48.606;9.222;2022-07-23T09:20:12;29.10;99.90
12893;DHT22;6514;48.606;9.222;2022-07-23T09:22:44;29.40;99.90
12893;DHT22;6514;48.606;9.222;2022-07-23T09:25:14;29.80;99.90
12893;DHT22;6514;48.606;9.222;2022-07-23T09:27:50;30.30;99.90
12893;DHT22;6514;48.606;9.222;2022-07-23T09:30:22;30.70;99.90
12893;DHT22;6514;48.606;9.222;2022-07-23T09:33:07;30.80;99.90
12893;DHT22;6514;48.606;9.222;2022-07-23T09:35:48;30.70;99.90
12893;DHT22;6514;48.606;9.222;2022-07-23T09:38:20;30.70;99.90
12893;DHT22;6514;48.606;9.222;2022-07-23T09:41:05;30.80;99.90
12893;DHT22;6514;48.606;9.222;2022-07-23T09:43:32;31.20;99.90
12893;DHT22;6514;48.606;9.222;2022-07-23T09:46:17;31.70;99.90
12893;DHT22;6514;48.606;9.222;2022-07-23T09:48:44;32.20;99.90
12893;DHT22;6514;48.606;9.222;2022-07-23T09:51:12;32.50;99.90
12893;DHT22;6514;48.606;9.222;2022-07-23T09:53:41;32.40;99.90
12893;DHT22;6514;48.606;9.222;2022-07-23T09:56:08;32.50;99.90
12893;DHT22;6514;48.606;9.222;2022-07-23T09:58:36;32.50;99.90
12893;DHT22;6514;48.606;9.222;2022-07-23T10:01:13;32.50;99.90
12893;DHT22;6514;48.606;9.222;2022-07-23T10:03:41;32.50;99.90
12893;DHT22;6514;48.606;9.222;2022-07-23T10:06:08;32.50;99.90
12893;DHT22;6514;48.606;9.222;2022-07-23T10:08:41;32.40;99.90
12893;DHT22;6514;48.606;9.222;2022-07-23T10:11:11;32.40;99.90
12893;DHT22;6514;48.606;9.222;2022-07-23T10:13:40;32.70;99.90
12893;DHT22;6514;48.606;9.222;2022-07-23T10:16:20;32.90;99.90
12893;DHT22;6514;48.606;9.222;2022-07-23T10:18:48;32.90;99.90
12893;DHT22;6514;48.606;9.222;2022-07-23T10:21:20;33.00;99.90
12893;DHT22;6514;48.606;9.222;2022-07-23T10:24:04;33.00;99.90
12893;DHT22;6514;48.606;9.222;2022-07-23T10:26:41;33.70;99.90
12893;DHT22;6514;48.606;9.222;2022-07-23T10:29:17;33.80;99.90
12893;DHT22;6514;48.606;9.222;2022-07-23T10:31:56;34.20;99.90
12893;DHT22;6514;48.606;9.222;2022-07-23T10:34:35;34.40;99.90
12893;DHT22;6514;48.606;9.222;2022-07-23T10:37:13;34.70;99.90
12893;DHT22;6514;48.606;9.222;2022-07-23T10:39:45;34.80;99.90
12893;DHT22;6514;48.606;9.222;2022-07-23T10:42:13;34.80;99.90
12893;DHT22;6514;48.606;9.222;2022-07-23T10:44:42;35.00;99.90
12893;DHT22;6514;48.606;9.222;2022-07-23T10:47:10;35.00;99.90
12893;DHT22;6514;48.606;9.222;2022-07-23T10:50:18;34.80;98.90
12893;DHT22;6514;48.606;9.222;2022-07-23T10:53:07;34.20;98.20
12893;DHT22;6514;48.606;9.222;2022-07-23T10:55:45;33.90;98.20
12893;DHT22;6514;48.606;9.222;2022-07-23T10:58:17;33.60;99.90
12893;DHT22;6514;48.606;9.222;2022-07-23T11:00:45;33.70;99.90
12893;DHT22;6514;48.606;9.222;2022-07-23T11:03:33;33.60;99.90
12893;DHT22;6514;48.606;9.222;2022-07-23T11:06:02;33.40;99.90
12893;DHT22;6514;48.606;9.222;2022-07-23T11:08:31;33.20;99.30
12893;DHT22;6514;48.606;9.222;2022-07-23T11:11:11;32.90;99.90
12893;DHT22;6514;48.606;9.222;2022-07-23T11:13:46;32.70;99.90
12893;DHT22;6514;48.606;9.222;2022-07-23T11:16:21;32.90;99.90
12893;DHT22;6514;48.606;9.222;2022-07-23T11:19:08;32.90;99.90
12893;DHT22;6514;48.606;9.222;2022-07-23T11:21:51;33.10;99.90
12893;DHT22;6514;48.606;9.222;2022-07-23T11:24:23;33.40;99.90
12893;DHT22;6514;48.606;9.222;2022-07-23T11:27:02;33.90;99.90
12893;DHT22;6514;48.606;9.222;2022-07-23T11:29:48;34.50;99.90
12893;DHT22;6514;48.606;9.222;2022-07-23T11:32:39;34.90;99.90
12893;DHT22;6514;48.606;9.222;2022-07-23T11:35:25;34.60;98.50
12893;DHT22;6514;48.606;9.222;2022-07-23T11:37:54;34.20;99.10
12893;DHT22;6514;48.606;9.222;2022-07-23T11:40:24;33.40;97.80
12893;DHT22;6514;48.606;9.222;2022-07-23T11:42:56;33.10;98.70
12893;DHT22;6514;48.606;9.222;2022-07-23T11:45:25;32.90;99.90
12893;DHT22;6514;48.606;9.222;2022-07-23T11:47:53;32.70;99.90
12893;DHT22;6514;48.606;9.222;2022-07-23T11:50:23;32.50;99.90
12893;DHT22;6514;48.606;9.222;2022-07-23T11:52:50;32.20;99.90
12893;DHT22;6514;48.606;9.222;2022-07-23T11:55:17;31.70;99.90
12893;DHT22;6514;48.606;9.222;2022-07-23T11:57:45;31.40;99.90
12893;DHT22;6514;48.606;9.222;2022-07-23T12:00:15;31.00;99.90
12893;DHT22;6514;48.606;9.222;2022-07-23T12:02:44;30.90;99.90
12893;DHT22;6514;48.606;9.222;2022-07-23T12:05:12;31.10;99.90
12893;DHT22;6514;48.606;9.222;2022-07-23T12:07:40;31.70;99.90
12893;DHT22;6514;48.606;9.222;2022-07-23T12:10:13;32.40;99.90
12893;DHT22;6514;48.606;9.222;2022-07-23T12:12:42;33.30;99.90
12893;DHT22;6514;48.606;9.222;2022-07-23T12:15:09;34.00;99.90
12893;DHT22;6514;48.606;9.222;2022-07-23T12:17:39;34.50;98.80
12893;DHT22;6514;48.606;9.222;2022-07-23T12:20:09;34.80;99.90
12893;DHT22;6514;48.606;9.222;2022-07-23T12:22:40;34.90;98.30
12893;DHT22;6514;48.606;9.222;2022-07-23T12:25:09;34.70;96.80
12893;DHT22;6514;48.606;9.222;2022-07-23T12:27:36;34.40;97.70
12893;DHT22;6514;48.606;9.222;2022-07-23T12:30:17;34.50;97.60
12893;DHT22;6514;48.606;9.222;2022-07-23T12:32:47;35.10;96.90
12893;DHT22;6514;48.606;9.222;2022-07-23T12:35:14;35.60;96.80
12893;DHT22;6514;48.606;9.222;2022-07-23T12:37:43;36.10;95.60
12893;DHT22;6514;48.606;9.222;2022-07-23T12:40:22;36.50;92.90
12893;DHT22;6514;48.606;9.222;2022-07-23T12:42:51;36.70;92.00
12893;DHT22;6514;48.606;9.222;2022-07-23T12:45:18;36.60;91.00
12893;DHT22;6514;48.606;9.222;2022-07-23T12:47:58;36.40;94.20
12893;DHT22;6514;48.606;9.222;2022-07-23T12:50:40;36.60;93.80
12893;DHT22;6514;48.606;9.222;2022-07-23T12:53:11;36.80;93.20
12893;DHT22;6514;48.606;9.222;2022-07-23T12:55:39;37.00;92.10
12893;DHT22;6514;48.606;9.222;2022-07-23T12:58:09;36.80;90.40
12893;DHT22;6514;48.606;9.222;2022-07-23T13:01:01;36.30;94.10
12893;DHT22;6514;48.606;9.222;2022-07-23T13:03:38;35.40;93.50
12893;DHT22;6514;48.606;9.222;2022-07-23T13:06:07;34.50;94.50
12893;DHT22;6514;48.606;9.222;2022-07-23T13:08:35;33.80;94.60
12893;DHT22;6514;48.606;9.222;2022-07-23T13:11:03;33.20;94.60
12893;DHT22;6514;48.606;9.222;2022-07-23T13:13:32;32.80;94.50
12893;DHT22;6514;48.606;9.222;2022-07-23T13:16:00;32.20;95.00
12893;DHT22;6514;48.606;9.222;2022-07-23T13:18:28;31.50;96.40
12893;DHT22;6514;48.606;9.222;2022-07-23T13:20:56;31.00;96.90
12893;DHT22;6514;48.606;9.222;2022-07-23T13:23:24;30.40;98.10
12893;DHT22;6514;48.606;9.222;2022-07-23T13:25:51;30.00;98.00
12893;DHT22;6514;48.606;9.222;2022-07-23T13:28:19;29.70;98.90
12893;DHT22;6514;48.606;9.222;2022-07-23T13:30:47;29.70;99.50
12893;DHT22;6514;48.606;9.222;2022-07-23T13:33:16;30.20;98.90
12893;DHT22;6514;48.606;9.222;2022-07-23T13:35:43;30.90;98.50
12893;DHT22;6514;48.606;9.222;2022-07-23T13:38:12;31.50;97.80
12893;DHT22;6514;48.606;9.222;2022-07-23T13:40:42;31.80;96.20
12893;DHT22;6514;48.606;9.222;2022-07-23T13:43:10;31.70;96.50
12893;DHT22;6514;48.606;9.222;2022-07-23T13:45:37;31.80;99.00
12893;DHT22;6514;48.606;9.222;2022-07-23T13:48:06;31.90;96.30
12893;DHT22;6514;48.606;9.222;2022-07-23T13:50:33;31.80;96.50
12893;DHT22;6514;48.606;9.222;2022-07-23T13:53:02;31.50;97.30
12893;DHT22;6514;48.606;9.222;2022-07-23T13:55:31;31.20;96.30
12893;DHT22;6514;48.606;9.222;2022-07-23T13:57:58;31.00;97.40
12893;DHT22;6514;48.606;9.222;2022-07-23T14:00:27;30.70;96.90
12893;DHT22;6514;48.606;9.222;2022-07-23T14:02:54;30.40;97.10
12893;DHT22;6514;48.606;9.222;2022-07-23T14:05:21;30.00;97.80
12893;DHT22;6514;48.606;9.222;2022-07-23T14:07:48;29.70;99.90
12893;DHT22;6514;48.606;9.222;2022-07-23T14:10:17;29.50;99.90
12893;DHT22;6514;48.606;9.222;2022-07-23T14:12:47;29.40;99.90
12893;DHT22;6514;48.606;9.222;2022-07-23T14:15:15;29.40;99.90
12893;DHT22;6514;48.606;9.222;2022-07-23T14:17:43;29.40;99.90
12893;DHT22;6514;48.606;9.222;2022-07-23T14:20:11;29.40;99.90
12893;DHT22;6514;48.606;9.222;2022-07-23T14:22:39;29.40;99.90
12893;DHT22;6514;48.606;9.222;2022-07-23T14:25:07;29.40;99.90
12893;DHT22;6514;48.606;9.222;2022-07-23T14:27:34;29.60;99.90
12893;DHT22;6514;48.606;9.222;2022-07-23T14:30:05;29.70;99.90
12893;DHT22;6514;48.606;9.222;2022-07-23T14:32:33;29.90;99.90
12893;DHT22;6514;48.606;9.222;2022-07-23T14:35:00;30.10;99.90
12893;DHT22;6514;48.606;9.222;2022-07-23T14:37:28;30.50;99.90
12893;DHT22;6514;48.606;9.222;2022-07-23T14:39:55;30.60;99.90
12893;DHT22;6514;48.606;9.222;2022-07-23T14:42:21;30.90;99.90
12893;DHT22;6514;48.606;9.222;2022-07-23T14:44:48;31.10;99.90
12893;DHT22;6514;48.606;9.222;2022-07-23T14:47:17;31.60;99.90
12893;DHT22;6514;48.606;9.222;2022-07-23T14:49:44;32.30;99.90
12893;DHT22;6514;48.606;9.222;2022-07-23T14:52:11;33.10;97.80
12893;DHT22;6514;48.606;9.222;2022-07-23T14:54:38;33.80;99.40
12893;DHT22;6514;48.606;9.222;2022-07-23T14:57:05;34.20;97.10
12893;DHT22;6514;48.606;9.222;2022-07-23T14:59:33;34.50;95.60
12893;DHT22;6514;48.606;9.222;2022-07-23T15:02:00;34.30;94.10
12893;DHT22;6514;48.606;9.222;2022-07-23T15:04:29;34.00;94.20
12893;DHT22;6514;48.606;9.222;2022-07-23T15:06:55;33.80;96.50
12893;DHT22;6514;48.606;9.222;2022-07-23T15:09:22;33.90;93.70
12893;DHT22;6514;48.606;9.222;2022-07-23T15:11:49;34.20;97.40
12893;DHT22;6514;48.606;9.222;2022-07-23T15:14:17;34.30;97.40
12893;DHT22;6514;48.606;9.222;2022-07-23T15:16:44;34.50;94.20
12893;DHT22;6514;48.606;9.222;2022-07-23T15:19:11;34.80;94.40
12893;DHT22;6514;48.606;9.222;2022-07-23T15:21:39;34.90;94.80
12893;DHT22;6514;48.606;9.222;2022-07-23T15:24:06;35.20;94.00
12893;DHT22;6514;48.606;9.222;2022-07-23T15:26:33;34.80;93.40
12893;DHT22;6514;48.606;9.222;2022-07-23T15:29:01;34.90;95.50
12893;DHT22;6514;48.606;9.222;2022-07-23T15:31:31;35.30;94.10
12893;DHT22;6514;48.606;9.222;2022-07-23T15:33:58;35.60;94.40
12893;DHT22;6514;48.606;9.222;2022-07-23T15:36:25;35.80;93.90
12893;DHT22;6514;48.606;9.222;2022-07-23T15:38:54;36.00;95.00
12893;DHT22;6514;48.606;9.222;2022-07-23T15:41:21;36.00;92.50
12893;DHT22;6514;48.606;9.222;2022-07-23T15:43:48;35.70;91.40
12893;DHT22;6514;48.606;9.222;2022-07-23T15:46:16;35.40;92.70
12893;DHT22;6514;48.606;9.222;2022-07-23T15:48:44;35.30;92.10
12893;DHT22;6514;48.606;9.222;2022-07-23T15:51:11;35.20;92.50
12893;DHT22;6514;48.606;9.222;2022-07-23T15:53:38;34.70;91.60
12893;DHT22;6514;48.606;9.222;2022-07-23T15:56:07;34.20;94.90
12893;DHT22;6514;48.606;9.222;2022-07-23T15:58:35;33.70;93.70
12893;DHT22;6514;48.606;9.222;2022-07-23T16:01:02;33.20;92.80